Главная страница
METAR-TAF:

METAR-TAF

Аэропорты :

Самсун, Турция

широта: 41-15-15N, долгота: 036-34-03E, высота над уровнем моря: 5 м

Текущие метеонаблюдения

Эта сводка был подготовлена 1 час и 1 минут назад, в 01:50 UTC
Штиль
Температура 17°C
Влажность 94%
Давление 1015 hPa
Видимость 10 км и более
Отдельные облака на высоте 3300 фута

METAR: LTFH 210150Z 00000KT 9999 SCT033 17/16 Q1015 NOSIG

Время: 05:51 (02:51 UTC)

Прогноз

Эта сводка был подготовлена 1 час и 11 минут назад, в 01:40 UTC
Прогноз действительный с 21-го 03 UTC до 21-го 12 UTC
Ветер 6 Узел от западно-северо-западный
Видимость 10 км и более
Отдельные облака на высоте 3300 фута
изменения
С 21-го 06 UTC до 21-го 08 UTC
Видимость 10 км и более
Нет облачности ниже 1500 м, и нет кучево-дождевой облачности

TAF: LTFH 210140Z 2103/2112 30006KT 9999 SCT033 BECMG 2106/2108 CAVOK

Метеонаблюдения и прогнозы для более 4000 аэропортов (сводки METAR и TAF).

Имеющиеся станции представлены на карте желтыми и красными точками.

Чтобы увидеть название станции, наведите на нее мышь.

Затем щелкните, чтобы увидеть метеонаблюдения и метеопрогнозы.

Управление картой: чтобы увеличить масштаб, щелкните зеленые кнопки с черным крестиком; чтобы уменьшить масштаб, щелкните зеленую кнопку с тире; для просмотра соседних карт щелкайте зеленые стрелки.


METAR-TAF: